sensor_id;sensor_type;location;lat;lon;timestamp;pressure;altitude;pressure_sealevel;temperature;humidity
25430;BME280;13360;48.152;-1.788;2023-05-22T00:00:12;101951.53;;;15.77;100.00
25430;BME280;13360;48.152;-1.788;2023-05-22T00:02:38;102237.09;;;15.45;100.00
25430;BME280;13360;48.152;-1.788;2023-05-22T00:05:06;102484.38;;;15.43;100.00
25430;BME280;13360;48.152;-1.788;2023-05-22T00:07:32;102658.69;;;15.44;100.00
25430;BME280;13360;48.152;-1.788;2023-05-22T00:09:57;102796.25;;;15.48;100.00
25430;BME280;13360;48.152;-1.788;2023-05-22T00:12:22;102873.97;;;15.50;100.00
25430;BME280;13360;48.152;-1.788;2023-05-22T00:14:48;102894.28;;;15.50;100.00
25430;BME280;13360;48.152;-1.788;2023-05-22T00:17:13;102900.41;;;15.52;100.00
25430;BME280;13360;48.152;-1.788;2023-05-22T00:19:39;102913.50;;;15.57;100.00
25430;BME280;13360;48.152;-1.788;2023-05-22T00:22:04;102863.94;;;15.54;100.00
25430;BME280;13360;48.152;-1.788;2023-05-22T00:24:30;102783.72;;;15.66;100.00
25430;BME280;13360;48.152;-1.788;2023-05-22T00:26:55;102699.56;;;15.74;100.00
25430;BME280;13360;48.152;-1.788;2023-05-22T00:29:21;102595.91;;;15.77;100.00
25430;BME280;13360;48.152;-1.788;2023-05-22T00:31:46;102491.16;;;15.76;100.00
25430;BME280;13360;48.152;-1.788;2023-05-22T00:34:11;102401.41;;;15.79;100.00
25430;BME280;13360;48.152;-1.788;2023-05-22T00:36:36;102336.22;;;15.80;100.00
25430;BME280;13360;48.152;-1.788;2023-05-22T00:39:01;102267.97;;;15.78;100.00
25430;BME280;13360;48.152;-1.788;2023-05-22T00:41:27;102196.50;;;15.68;100.00
25430;BME280;13360;48.152;-1.788;2023-05-22T00:43:52;102184.16;;;15.74;100.00
25430;BME280;13360;48.152;-1.788;2023-05-22T00:46:18;102256.53;;;15.79;100.00
25430;BME280;13360;48.152;-1.788;2023-05-22T00:48:46;102310.59;;;15.78;100.00
25430;BME280;13360;48.152;-1.788;2023-05-22T00:51:12;102291.69;;;15.75;100.00
25430;BME280;13360;48.152;-1.788;2023-05-22T00:53:38;102249.38;;;15.73;100.00
25430;BME280;13360;48.152;-1.788;2023-05-22T00:56:04;102219.03;;;15.72;100.00
25430;BME280;13360;48.152;-1.788;2023-05-22T00:58:31;102172.81;;;15.71;100.00
25430;BME280;13360;48.152;-1.788;2023-05-22T01:00:56;102142.16;;;15.71;100.00
25430;BME280;13360;48.152;-1.788;2023-05-22T01:03:21;102099.56;;;15.70;100.00
25430;BME280;13360;48.152;-1.788;2023-05-22T01:05:50;102072.53;;;15.71;100.00
25430;BME280;13360;48.152;-1.788;2023-05-22T01:08:15;102042.19;;;15.69;100.00
25430;BME280;13360;48.152;-1.788;2023-05-22T01:10:40;102013.50;;;15.69;100.00
25430;BME280;13360;48.152;-1.788;2023-05-22T01:15:59;101950.34;;;15.64;100.00
25430;BME280;13360;48.152;-1.788;2023-05-22T01:23:42;101923.34;;;15.65;100.00
25430;BME280;13360;48.152;-1.788;2023-05-22T01:31:18;101907.34;;;15.51;100.00
25430;BME280;13360;48.152;-1.788;2023-05-22T01:33:55;101904.03;;;15.49;100.00
25430;BME280;13360;48.152;-1.788;2023-05-22T01:36:21;101904.88;;;15.50;100.00
25430;BME280;13360;48.152;-1.788;2023-05-22T01:38:48;101894.63;;;15.45;100.00
25430;BME280;13360;48.152;-1.788;2023-05-22T01:41:15;101900.72;;;15.47;100.00
25430;BME280;13360;48.152;-1.788;2023-05-22T01:43:41;101895.75;;;15.44;100.00
25430;BME280;13360;48.152;-1.788;2023-05-22T01:46:06;101893.59;;;15.41;100.00
25430;BME280;13360;48.152;-1.788;2023-05-22T01:48:31;101895.00;;;15.39;100.00
25430;BME280;13360;48.152;-1.788;2023-05-22T01:50:57;101885.00;;;15.38;100.00
25430;BME280;13360;48.152;-1.788;2023-05-22T01:53:27;101894.47;;;15.37;100.00
25430;BME280;13360;48.152;-1.788;2023-05-22T01:56:00;101889.50;;;15.34;100.00
25430;BME280;13360;48.152;-1.788;2023-05-22T02:01:00;101890.13;;;15.31;100.00
25430;BME280;13360;48.152;-1.788;2023-05-22T02:03:29;101884.03;;;15.29;100.00
25430;BME280;13360;48.152;-1.788;2023-05-22T02:05:54;101895.16;;;15.29;100.00
25430;BME280;13360;48.152;-1.788;2023-05-22T02:08:22;101895.97;;;15.29;100.00
25430;BME280;13360;48.152;-1.788;2023-05-22T02:10:48;101898.75;;;15.29;100.00
25430;BME280;13360;48.152;-1.788;2023-05-22T02:13:15;101890.72;;;15.28;100.00
25430;BME280;13360;48.152;-1.788;2023-05-22T02:15:40;101898.25;;;15.27;100.00
25430;BME280;13360;48.152;-1.788;2023-05-22T02:18:09;101894.09;;;15.24;100.00
25430;BME280;13360;48.152;-1.788;2023-05-22T02:20:34;101893.59;;;15.22;100.00
25430;BME280;13360;48.152;-1.788;2023-05-22T02:23:00;101900.28;;;15.21;100.00
25430;BME280;13360;48.152;-1.788;2023-05-22T02:25:25;101903.63;;;15.18;100.00
25430;BME280;13360;48.152;-1.788;2023-05-22T02:27:50;101908.97;;;15.15;100.00
25430;BME280;13360;48.152;-1.788;2023-05-22T02:30:15;101919.88;;;15.11;100.00
25430;BME280;13360;48.152;-1.788;2023-05-22T02:32:41;101924.31;;;15.12;100.00
25430;BME280;13360;48.152;-1.788;2023-05-22T02:35:06;101934.09;;;15.10;100.00
25430;BME280;13360;48.152;-1.788;2023-05-22T02:37:31;101942.75;;;15.08;100.00
25430;BME280;13360;48.152;-1.788;2023-05-22T02:39:57;101952.22;;;15.07;100.00
25430;BME280;13360;48.152;-1.788;2023-05-22T02:42:22;101954.19;;;15.07;100.00
25430;BME280;13360;48.152;-1.788;2023-05-22T02:44:47;101960.13;;;15.00;100.00
25430;BME280;13360;48.152;-1.788;2023-05-22T02:47:12;101962.91;;;15.00;100.00
25430;BME280;13360;48.152;-1.788;2023-05-22T02:49:38;101976.22;;;15.03;100.00
25430;BME280;13360;48.152;-1.788;2023-05-22T02:52:03;101982.31;;;15.05;100.00
25430;BME280;13360;48.152;-1.788;2023-05-22T02:54:28;101979.81;;;15.04;100.00
25430;BME280;13360;48.152;-1.788;2023-05-22T02:56:53;101994.03;;;15.02;100.00
25430;BME280;13360;48.152;-1.788;2023-05-22T02:59:19;102002.38;;;15.02;100.00
25430;BME280;13360;48.152;-1.788;2023-05-22T03:01:44;102012.59;;;15.07;100.00
25430;BME280;13360;48.152;-1.788;2023-05-22T03:04:10;102012.38;;;15.03;100.00
25430;BME280;13360;48.152;-1.788;2023-05-22T03:06:36;102026.28;;;15.03;100.00
25430;BME280;13360;48.152;-1.788;2023-05-22T03:09:02;102028.25;;;15.03;100.00
25430;BME280;13360;48.152;-1.788;2023-05-22T03:11:28;102035.47;;;15.04;100.00
25430;BME280;13360;48.152;-1.788;2023-05-22T03:13:53;102036.81;;;15.06;100.00
25430;BME280;13360;48.152;-1.788;2023-05-22T03:16:19;102032.16;;;15.02;100.00
25430;BME280;13360;48.152;-1.788;2023-05-22T03:18:44;102042.69;;;15.05;100.00
25430;BME280;13360;48.152;-1.788;2023-05-22T03:21:09;102037.44;;;14.98;100.00
25430;BME280;13360;48.152;-1.788;2023-05-22T03:23:35;102044.41;;;15.01;100.00
25430;BME280;13360;48.152;-1.788;2023-05-22T03:26:00;102048.59;;;14.98;100.00
25430;BME280;13360;48.152;-1.788;2023-05-22T03:28:25;102056.41;;;14.96;100.00
25430;BME280;13360;48.152;-1.788;2023-05-22T03:30:50;102062.78;;;14.97;100.00
25430;BME280;13360;48.152;-1.788;2023-05-22T03:33:16;102074.75;;;14.97;100.00
25430;BME280;13360;48.152;-1.788;2023-05-22T03:35:41;102084.22;;;14.96;100.00
25430;BME280;13360;48.152;-1.788;2023-05-22T03:38:08;102081.97;;;14.98;100.00
25430;BME280;13360;48.152;-1.788;2023-05-22T03:40:33;102095.31;;;15.01;100.00
25430;BME280;13360;48.152;-1.788;2023-05-22T03:42:58;102081.41;;;15.01;100.00
25430;BME280;13360;48.152;-1.788;2023-05-22T03:45:24;102077.88;;;14.90;100.00
25430;BME280;13360;48.152;-1.788;2023-05-22T03:47:49;102099.53;;;14.93;100.00
25430;BME280;13360;48.152;-1.788;2023-05-22T03:50:14;102116.06;;;14.85;100.00
25430;BME280;13360;48.152;-1.788;2023-05-22T03:52:40;102138.31;;;14.85;100.00
25430;BME280;13360;48.152;-1.788;2023-05-22T03:55:05;102136.94;;;14.82;100.00
25430;BME280;13360;48.152;-1.788;2023-05-22T03:57:30;102146.13;;;14.83;100.00
25430;BME280;13360;48.152;-1.788;2023-05-22T03:59:56;102155.81;;;14.85;100.00
25430;BME280;13360;48.152;-1.788;2023-05-22T04:02:21;102155.28;;;14.83;100.00
25430;BME280;13360;48.152;-1.788;2023-05-22T04:04:50;102158.84;;;14.89;100.00
25430;BME280;13360;48.152;-1.788;2023-05-22T04:07:15;102162.47;;;14.89;100.00
25430;BME280;13360;48.152;-1.788;2023-05-22T04:09:42;102163.28;;;14.90;100.00
25430;BME280;13360;48.152;-1.788;2023-05-22T04:12:07;102160.56;;;14.85;100.00
25430;BME280;13360;48.152;-1.788;2023-05-22T04:14:32;102155.00;;;14.85;100.00
25430;BME280;13360;48.152;-1.788;2023-05-22T04:16:58;102155.00;;;14.85;100.00
25430;BME280;13360;48.152;-1.788;2023-05-22T04:19:23;102155.31;;;14.78;100.00
25430;BME280;13360;48.152;-1.788;2023-05-22T04:21:48;102160.63;;;14.80;100.00
25430;BME280;13360;48.152;-1.788;2023-05-22T04:24:14;102158.38;;;14.77;100.00
25430;BME280;13360;48.152;-1.788;2023-05-22T04:26:39;102151.75;;;14.73;100.00
25430;BME280;13360;48.152;-1.788;2023-05-22T04:29:04;102158.53;;;14.61;100.00
25430;BME280;13360;48.152;-1.788;2023-05-22T04:31:34;102172.94;;;14.69;100.00
25430;BME280;13360;48.152;-1.788;2023-05-22T04:33:59;102175.66;;;14.74;100.00
25430;BME280;13360;48.152;-1.788;2023-05-22T04:36:25;102168.44;;;14.73;100.00
25430;BME280;13360;48.152;-1.788;2023-05-22T04:38:50;102171.47;;;14.76;100.00
25430;BME280;13360;48.152;-1.788;2023-05-22T04:41:16;102168.69;;;14.76;100.00
25430;BME280;13360;48.152;-1.788;2023-05-22T04:43:42;102166.19;;;14.75;100.00
25430;BME280;13360;48.152;-1.788;2023-05-22T04:46:07;102166.25;;;14.70;100.00
25430;BME280;13360;48.152;-1.788;2023-05-22T04:48:33;102175.41;;;14.70;100.00
25430;BME280;13360;48.152;-1.788;2023-05-22T04:50:59;102172.09;;;14.68;100.00
25430;BME280;13360;48.152;-1.788;2023-05-22T04:53:26;102175.72;;;14.69;100.00
25430;BME280;13360;48.152;-1.788;2023-05-22T04:55:52;102173.00;;;14.58;100.00
25430;BME280;13360;48.152;-1.788;2023-05-22T04:58:18;102193.25;;;14.64;100.00
25430;BME280;13360;48.152;-1.788;2023-05-22T05:00:43;102196.28;;;14.68;100.00
25430;BME280;13360;48.152;-1.788;2023-05-22T05:03:08;102199.63;;;14.70;100.00
25430;BME280;13360;48.152;-1.788;2023-05-22T05:05:35;102192.97;;;14.66;100.00
25430;BME280;13360;48.152;-1.788;2023-05-22T05:08:00;102199.38;;;14.66;100.00
25430;BME280;13360;48.152;-1.788;2023-05-22T05:10:26;102213.03;;;14.62;100.00
25430;BME280;13360;48.152;-1.788;2023-05-22T05:12:51;102220.50;;;14.67;100.00
25430;BME280;13360;48.152;-1.788;2023-05-22T05:15:17;102216.59;;;14.68;100.00
25430;BME280;13360;48.152;-1.788;2023-05-22T05:17:42;102217.72;;;14.67;100.00
25430;BME280;13360;48.152;-1.788;2023-05-22T05:20:07;102225.22;;;14.67;100.00
25430;BME280;13360;48.152;-1.788;2023-05-22T05:22:33;102239.13;;;14.67;100.00
25430;BME280;13360;48.152;-1.788;2023-05-22T05:24:58;102233.56;;;14.67;100.00
25430;BME280;13360;48.152;-1.788;2023-05-22T05:27:23;102239.13;;;14.67;100.00
25430;BME280;13360;48.152;-1.788;2023-05-22T05:29:49;102240.50;;;14.69;100.00
25430;BME280;13360;48.152;-1.788;2023-05-22T05:32:14;102249.38;;;14.71;100.00
25430;BME280;13360;48.152;-1.788;2023-05-22T05:34:39;102259.09;;;14.74;100.00
25430;BME280;13360;48.152;-1.788;2023-05-22T05:37:05;102254.69;;;14.68;100.00
25430;BME280;13360;48.152;-1.788;2023-05-22T05:39:30;102268.06;;;14.66;100.00
25430;BME280;13360;48.152;-1.788;2023-05-22T05:41:55;102274.69;;;14.70;100.00
25430;BME280;13360;48.152;-1.788;2023-05-22T05:44:21;102274.13;;;14.73;100.00
25430;BME280;13360;48.152;-1.788;2023-05-22T05:46:46;102294.97;;;14.75;100.00
25430;BME280;13360;48.152;-1.788;2023-05-22T05:49:11;102293.00;;;14.76;100.00
25430;BME280;13360;48.152;-1.788;2023-05-22T05:51:37;102296.63;;;14.76;100.00
25430;BME280;13360;48.152;-1.788;2023-05-22T05:54:02;102305.81;;;14.77;100.00
25430;BME280;13360;48.152;-1.788;2023-05-22T05:56:27;102316.09;;;14.81;100.00
25430;BME280;13360;48.152;-1.788;2023-05-22T05:58:53;102318.53;;;14.88;100.00
25430;BME280;13360;48.152;-1.788;2023-05-22T06:01:18;102316.84;;;14.92;100.00
25430;BME280;13360;48.152;-1.788;2023-05-22T06:03:43;102307.97;;;14.90;100.00
25430;BME280;13360;48.152;-1.788;2023-05-22T06:06:09;102312.19;;;14.82;100.00
25430;BME280;13360;48.152;-1.788;2023-05-22T06:08:35;102325.47;;;14.90;100.00
25430;BME280;13360;48.152;-1.788;2023-05-22T06:11:02;102328.22;;;14.95;100.00
25430;BME280;13360;48.152;-1.788;2023-05-22T06:13:27;102339.06;;;14.97;100.00
25430;BME280;13360;48.152;-1.788;2023-05-22T06:15:52;102339.34;;;14.95;100.00
25430;BME280;13360;48.152;-1.788;2023-05-22T06:18:17;102350.72;;;14.99;100.00
25430;BME280;13360;48.152;-1.788;2023-05-22T06:20:43;102334.91;;;15.00;100.00
25430;BME280;13360;48.152;-1.788;2023-05-22T06:23:08;102356.31;;;14.99;100.00
25430;BME280;13360;48.152;-1.788;2023-05-22T06:25:33;102349.66;;;14.95;100.00
25430;BME280;13360;48.152;-1.788;2023-05-22T06:27:58;102354.47;;;14.84;100.00
25430;BME280;13360;48.152;-1.788;2023-05-22T06:30:24;102372.75;;;14.95;100.00
25430;BME280;13360;48.152;-1.788;2023-05-22T06:32:50;102389.69;;;15.04;100.00
25430;BME280;13360;48.152;-1.788;2023-05-22T06:35:16;102394.97;;;15.06;100.00
25430;BME280;13360;48.152;-1.788;2023-05-22T06:37:42;102405.78;;;15.12;100.00
25430;BME280;13360;48.152;-1.788;2023-05-22T06:40:07;102418.03;;;15.11;100.00
25430;BME280;13360;48.152;-1.788;2023-05-22T06:42:34;102429.13;;;15.16;100.00
25430;BME280;13360;48.152;-1.788;2023-05-22T06:44:59;102423.25;;;15.23;100.00
25430;BME280;13360;48.152;-1.788;2023-05-22T06:47:24;102425.75;;;15.24;100.00
25430;BME280;13360;48.152;-1.788;2023-05-22T06:49:49;102421.25;;;15.29;100.00
25430;BME280;13360;48.152;-1.788;2023-05-22T06:52:14;102395.13;;;15.19;100.00
25430;BME280;13360;48.152;-1.788;2023-05-22T06:54:40;102380.63;;;15.28;100.00
25430;BME280;13360;48.152;-1.788;2023-05-22T06:57:07;102364.75;;;15.28;100.00
25430;BME280;13360;48.152;-1.788;2023-05-22T06:59:32;102365.00;;;15.32;100.00
25430;BME280;13360;48.152;-1.788;2023-05-22T07:01:57;102358.28;;;15.38;100.00
25430;BME280;13360;48.152;-1.788;2023-05-22T07:04:23;102364.94;;;15.42;100.00
25430;BME280;13360;48.152;-1.788;2023-05-22T07:06:48;102366.03;;;15.46;100.00
25430;BME280;13360;48.152;-1.788;2023-05-22T07:09:13;102307.84;;;15.44;100.00
25430;BME280;13360;48.152;-1.788;2023-05-22T07:11:39;102291.38;;;15.48;100.00
25430;BME280;13360;48.152;-1.788;2023-05-22T07:14:06;102296.31;;;15.56;100.00
25430;BME280;13360;48.152;-1.788;2023-05-22T07:16:32;102297.69;;;15.64;100.00
25430;BME280;13360;48.152;-1.788;2023-05-22T07:18:57;102292.88;;;15.69;100.00
25430;BME280;13360;48.152;-1.788;2023-05-22T07:21:23;102286.13;;;15.75;100.00
25430;BME280;13360;48.152;-1.788;2023-05-22T07:23:48;102285.50;;;15.83;100.00
25430;BME280;13360;48.152;-1.788;2023-05-22T07:26:14;102260.66;;;15.87;100.00
25430;BME280;13360;48.152;-1.788;2023-05-22T07:28:39;102224.19;;;15.83;100.00
25430;BME280;13360;48.152;-1.788;2023-05-22T07:31:04;102228.50;;;15.95;100.00
25430;BME280;13360;48.152;-1.788;2023-05-22T07:33:30;102246.53;;;16.02;100.00
25430;BME280;13360;48.152;-1.788;2023-05-22T07:35:55;102206.63;;;16.07;100.00
25430;BME280;13360;48.152;-1.788;2023-05-22T07:38:21;102162.25;;;16.10;100.00
25430;BME280;13360;48.152;-1.788;2023-05-22T07:40:46;102178.00;;;16.20;100.00
25430;BME280;13360;48.152;-1.788;2023-05-22T07:43:11;102166.19;;;16.28;100.00
25430;BME280;13360;48.152;-1.788;2023-05-22T07:45:39;102174.41;;;16.38;100.00
25430;BME280;13360;48.152;-1.788;2023-05-22T07:48:04;102180.97;;;16.48;100.00
25430;BME280;13360;48.152;-1.788;2023-05-22T07:50:29;102161.59;;;16.56;100.00
25430;BME280;13360;48.152;-1.788;2023-05-22T07:52:57;102119.44;;;16.58;100.00
25430;BME280;13360;48.152;-1.788;2023-05-22T07:55:22;102086.41;;;16.65;100.00
25430;BME280;13360;48.152;-1.788;2023-05-22T07:57:47;102084.63;;;16.74;100.00
25430;BME280;13360;48.152;-1.788;2023-05-22T08:00:12;102037.59;;;16.81;100.00
25430;BME280;13360;48.152;-1.788;2023-05-22T08:02:41;102044.34;;;16.94;100.00
25430;BME280;13360;48.152;-1.788;2023-05-22T08:05:07;102038.88;;;17.02;100.00
25430;BME280;13360;48.152;-1.788;2023-05-22T08:07:32;102024.28;;;17.05;100.00
25430;BME280;13360;48.152;-1.788;2023-05-22T08:09:57;101997.63;;;17.13;100.00
25430;BME280;13360;48.152;-1.788;2023-05-22T08:12:23;101987.25;;;17.27;100.00
25430;BME280;13360;48.152;-1.788;2023-05-22T08:14:48;101987.38;;;17.36;100.00
25430;BME280;13360;48.152;-1.788;2023-05-22T08:17:14;101974.03;;;17.33;100.00
25430;BME280;13360;48.152;-1.788;2023-05-22T08:19:39;101934.31;;;17.36;100.00
25430;BME280;13360;48.152;-1.788;2023-05-22T08:22:05;101934.19;;;17.41;100.00
25430;BME280;13360;48.152;-1.788;2023-05-22T08:24:30;101968.84;;;17.54;100.00
25430;BME280;13360;48.152;-1.788;2023-05-22T08:26:56;101953.16;;;17.66;100.00
25430;BME280;13360;48.152;-1.788;2023-05-22T08:29:24;101942.28;;;17.79;100.00
25430;BME280;13360;48.152;-1.788;2023-05-22T08:31:50;101937.56;;;17.88;100.00
25430;BME280;13360;48.152;-1.788;2023-05-22T08:34:16;101939.63;;;17.96;100.00
25430;BME280;13360;48.152;-1.788;2023-05-22T08:36:41;101935.50;;;18.16;100.00
25430;BME280;13360;48.152;-1.788;2023-05-22T08:39:08;101922.31;;;18.39;100.00
25430;BME280;13360;48.152;-1.788;2023-05-22T08:41:33;101866.03;;;18.40;100.00
25430;BME280;13360;48.152;-1.788;2023-05-22T08:43:59;101863.59;;;18.47;100.00
25430;BME280;13360;48.152;-1.788;2023-05-22T08:46:24;101848.50;;;18.57;100.00
25430;BME280;13360;48.152;-1.788;2023-05-22T08:48:54;101819.44;;;18.75;100.00
25430;BME280;13360;48.152;-1.788;2023-05-22T08:51:20;101816.50;;;19.15;100.00
25430;BME280;13360;48.152;-1.788;2023-05-22T08:53:46;101789.66;;;19.40;100.00
25430;BME280;13360;48.152;-1.788;2023-05-22T08:56:15;101764.94;;;19.42;100.00
25430;BME280;13360;48.152;-1.788;2023-05-22T08:58:41;101718.31;;;19.37;100.00
25430;BME280;13360;48.152;-1.788;2023-05-22T09:01:06;101727.53;;;19.46;100.00
25430;BME280;13360;48.152;-1.788;2023-05-22T09:03:32;101725.00;;;19.71;100.00
25430;BME280;13360;48.152;-1.788;2023-05-22T09:06:00;101724.06;;;19.96;100.00
25430;BME280;13360;48.152;-1.788;2023-05-22T09:08:26;101701.44;;;20.10;100.00
25430;BME280;13360;48.152;-1.788;2023-05-22T09:10:52;101661.66;;;20.37;100.00
25430;BME280;13360;48.152;-1.788;2023-05-22T09:13:24;101637.84;;;19.93;100.00
25430;BME280;13360;48.152;-1.788;2023-05-22T09:15:50;101609.34;;;19.62;100.00
25430;BME280;13360;48.152;-1.788;2023-05-22T09:18:15;101599.56;;;19.21;100.00
25430;BME280;13360;48.152;-1.788;2023-05-22T09:20:40;101607.09;;;19.38;100.00
25430;BME280;13360;48.152;-1.788;2023-05-22T09:23:09;101633.75;;;20.20;100.00
25430;BME280;13360;48.152;-1.788;2023-05-22T09:25:35;101609.47;;;20.66;100.00
25430;BME280;13360;48.152;-1.788;2023-05-22T09:28:00;101614.88;;;21.49;100.00
25430;BME280;13360;48.152;-1.788;2023-05-22T09:30:25;101614.28;;;22.17;100.00
25430;BME280;13360;48.152;-1.788;2023-05-22T09:32:50;101610.81;;;22.08;100.00
25430;BME280;13360;48.152;-1.788;2023-05-22T09:35:17;101606.00;;;22.08;100.00
25430;BME280;13360;48.152;-1.788;2023-05-22T09:37:43;101614.50;;;22.24;100.00
25430;BME280;13360;48.152;-1.788;2023-05-22T09:40:11;101601.66;;;22.51;100.00
25430;BME280;13360;48.152;-1.788;2023-05-22T09:42:37;101601.22;;;22.49;100.00
25430;BME280;13360;48.152;-1.788;2023-05-22T09:45:06;101599.78;;;22.43;100.00
25430;BME280;13360;48.152;-1.788;2023-05-22T09:47:31;101596.59;;;22.85;100.00
25430;BME280;13360;48.152;-1.788;2023-05-22T09:50:01;101613.22;;;23.18;100.00
25430;BME280;13360;48.152;-1.788;2023-05-22T09:52:28;101612.28;;;23.57;100.00
25430;BME280;13360;48.152;-1.788;2023-05-22T09:54:57;101634.16;;;23.48;100.00
25430;BME280;13360;48.152;-1.788;2023-05-22T09:57:23;101613.28;;;24.51;100.00
25430;BME280;13360;48.152;-1.788;2023-05-22T09:59:50;101610.06;;;24.91;100.00
25430;BME280;13360;48.152;-1.788;2023-05-22T10:02:22;101610.09;;;25.33;100.00
25430;BME280;13360;48.152;-1.788;2023-05-22T10:04:48;101613.72;;;25.11;100.00
25430;BME280;13360;48.152;-1.788;2023-05-22T10:07:17;101605.47;;;24.09;100.00
25430;BME280;13360;48.152;-1.788;2023-05-22T10:09:43;101632.47;;;23.75;100.00
25430;BME280;13360;48.152;-1.788;2023-05-22T10:12:10;101597.81;;;23.75;100.00
25430;BME280;13360;48.152;-1.788;2023-05-22T10:14:40;101622.78;;;23.13;100.00
25430;BME280;13360;48.152;-1.788;2023-05-22T10:17:06;101623.88;;;23.24;100.00
25430;BME280;13360;48.152;-1.788;2023-05-22T10:19:33;101606.63;;;23.73;100.00
25430;BME280;13360;48.152;-1.788;2023-05-22T10:21:59;101623.34;;;24.32;100.00
25430;BME280;13360;48.152;-1.788;2023-05-22T10:24:25;101624.22;;;25.10;100.00
25430;BME280;13360;48.152;-1.788;2023-05-22T10:26:50;101629.06;;;25.56;100.00
25430;BME280;13360;48.152;-1.788;2023-05-22T10:29:18;101614.09;;;24.51;100.00
25430;BME280;13360;48.152;-1.788;2023-05-22T10:34:16;101619.34;;;23.83;100.00
25430;BME280;13360;48.152;-1.788;2023-05-22T10:39:57;101596.47;;;22.81;100.00
25430;BME280;13360;48.152;-1.788;2023-05-22T10:42:01;101598.06;;;22.38;100.00
25430;BME280;13360;48.152;-1.788;2023-05-22T10:44:26;101591.09;;;21.96;100.00
25430;BME280;13360;48.152;-1.788;2023-05-22T10:46:52;101612.19;;;21.77;100.00
25430;BME280;13360;48.152;-1.788;2023-05-22T10:49:19;101626.47;;;21.72;100.00
25430;BME280;13360;48.152;-1.788;2023-05-22T10:51:45;101600.22;;;21.56;100.00
25430;BME280;13360;48.152;-1.788;2023-05-22T10:54:10;101608.31;;;21.45;100.00
25430;BME280;13360;48.152;-1.788;2023-05-22T10:56:36;101603.50;;;21.34;100.00
25430;BME280;13360;48.152;-1.788;2023-05-22T10:59:03;101617.78;;;21.28;100.00
25430;BME280;13360;48.152;-1.788;2023-05-22T11:01:32;101627.38;;;21.27;100.00
25430;BME280;13360;48.152;-1.788;2023-05-22T11:06:40;101628.69;;;21.09;100.00
25430;BME280;13360;48.152;-1.788;2023-05-22T11:09:26;101603.53;;;21.13;100.00
25430;BME280;13360;48.152;-1.788;2023-05-22T11:14:36;101589.91;;;21.02;100.00
25430;BME280;13360;48.152;-1.788;2023-05-22T11:17:01;101615.34;;;21.06;100.00
25430;BME280;13360;48.152;-1.788;2023-05-22T11:19:27;101589.31;;;20.97;100.00
25430;BME280;13360;48.152;-1.788;2023-05-22T11:21:52;101617.88;;;20.99;100.00
25430;BME280;13360;48.152;-1.788;2023-05-22T11:24:23;101603.38;;;20.97;100.00
25430;BME280;13360;48.152;-1.788;2023-05-22T11:27:03;101625.84;;;20.97;100.00
25430;BME280;13360;48.152;-1.788;2023-05-22T11:29:29;101593.41;;;20.87;100.00
25430;BME280;13360;48.152;-1.788;2023-05-22T11:31:55;101602.66;;;20.88;100.00
25430;BME280;13360;48.152;-1.788;2023-05-22T11:34:20;101614.56;;;20.85;100.00
25430;BME280;13360;48.152;-1.788;2023-05-22T11:36:46;101617.56;;;20.80;100.00
25430;BME280;13360;48.152;-1.788;2023-05-22T11:39:14;101604.22;;;20.77;100.00
25430;BME280;13360;48.152;-1.788;2023-05-22T11:41:40;101611.72;;;20.73;100.00
25430;BME280;13360;48.152;-1.788;2023-05-22T11:44:06;101629.63;;;20.80;100.00
25430;BME280;13360;48.152;-1.788;2023-05-22T11:46:31;101591.19;;;20.60;100.00
25430;BME280;13360;48.152;-1.788;2023-05-22T11:48:57;101609.53;;;20.57;100.00
25430;BME280;13360;48.152;-1.788;2023-05-22T11:51:22;101599.69;;;20.51;100.00
25430;BME280;13360;48.152;-1.788;2023-05-22T11:53:47;101606.25;;;20.55;100.00
25430;BME280;13360;48.152;-1.788;2023-05-22T11:56:12;101609.53;;;20.57;100.00
25430;BME280;13360;48.152;-1.788;2023-05-22T11:58:38;101631.91;;;20.66;100.00
25430;BME280;13360;48.152;-1.788;2023-05-22T12:01:03;101615.44;;;20.64;100.00
25430;BME280;13360;48.152;-1.788;2023-05-22T12:03:28;101625.97;;;20.67;100.00
25430;BME280;13360;48.152;-1.788;2023-05-22T12:05:57;101636.38;;;20.67;100.00
25430;BME280;13360;48.152;-1.788;2023-05-22T12:08:23;101607.66;;;20.61;100.00
25430;BME280;13360;48.152;-1.788;2023-05-22T12:10:48;101601.31;;;20.52;100.00
25430;BME280;13360;48.152;-1.788;2023-05-22T12:13:14;101623.78;;;20.52;100.00
25430;BME280;13360;48.152;-1.788;2023-05-22T12:15:45;101607.63;;;20.49;100.00
25430;BME280;13360;48.152;-1.788;2023-05-22T12:18:10;101591.16;;;20.39;100.00
25430;BME280;13360;48.152;-1.788;2023-05-22T12:20:40;101606.53;;;20.42;100.00
25430;BME280;13360;48.152;-1.788;2023-05-22T12:23:09;101591.16;;;20.39;100.00
25430;BME280;13360;48.152;-1.788;2023-05-22T12:25:35;101608.00;;;20.39;100.00
25430;BME280;13360;48.152;-1.788;2023-05-22T12:28:04;101611.63;;;20.39;100.00
25430;BME280;13360;48.152;-1.788;2023-05-22T12:30:37;101628.31;;;20.45;100.00
25430;BME280;13360;48.152;-1.788;2023-05-22T12:33:03;101611.81;;;20.43;100.00
25430;BME280;13360;48.152;-1.788;2023-05-22T12:35:28;101604.88;;;20.40;100.00
25430;BME280;13360;48.152;-1.788;2023-05-22T12:37:53;101616.59;;;20.43;100.00
25430;BME280;13360;48.152;-1.788;2023-05-22T12:40:18;101611.81;;;20.43;100.00
25430;BME280;13360;48.152;-1.788;2023-05-22T12:42:44;101612.97;;;20.42;100.00
25430;BME280;13360;48.152;-1.788;2023-05-22T12:45:09;101581.31;;;20.33;100.00
25430;BME280;13360;48.152;-1.788;2023-05-22T12:47:35;101591.59;;;20.29;100.00
25430;BME280;13360;48.152;-1.788;2023-05-22T12:50:00;101608.56;;;20.32;100.00